Time;durP1;ratioP1;P1;durP2;ratioP2;P2;SDS_P1;SDS_P2;PMS_P1;PMS_P2;Temp;Humidity;BMP_temperature;BMP_pressure;BME280_temperature;BME280_humidity;BME280_pressure;Samples;Min_cycle;Max_cycle;Signal;HPM_P1;HPM_P2
2022/03/19 05:52:54;;;;;;;;;25.50;22.75;;;;;10.10;42.45;102994.59;4997816;28;45673;-70
2022/03/19 05:55:19;;;;;;;;;34.25;30.00;;;;;10.00;42.97;102982.97;4984500;28;45369;-71
2022/03/19 05:57:44;;;;;;;;;28.00;25.25;;;;;10.01;43.08;102999.91;4981341;28;45321;-71
2022/03/19 06:00:11;;;;;;;;;29.50;27.25;;;;;9.97;43.23;102996.34;4986687;28;45522;-71
2022/03/19 06:02:43;;;;;;;;;20.25;15.75;;;;;10.04;43.34;102997.25;4994617;28;45415;-71
2022/03/19 06:05:09;;;;;;;;;29.50;26.50;;;;;9.99;43.12;103001.69;4994283;28;46605;-71
2022/03/19 06:07:34;;;;;;;;;35.75;31.25;;;;;9.90;43.20;102986.47;4980879;28;45296;-70
2022/03/19 06:10:00;;;;;;;;;30.75;26.25;;;;;9.99;43.59;102986.56;4994274;28;45280;-71
2022/03/19 06:12:25;;;;;;;;;32.25;29.50;;;;;10.05;43.25;102990.16;4994199;28;45212;-71
2022/03/19 06:14:53;;;;;;;;;30.00;27.00;;;;;10.04;43.27;102997.25;4980973;28;46054;-71
2022/03/19 06:17:19;;;;;;;;;28.75;26.00;;;;;10.05;43.20;103000.81;4993011;28;45666;-70
2022/03/19 06:19:44;;;;;;;;;39.25;31.00;;;;;10.10;43.62;103001.72;4981224;28;45324;-71
2022/03/19 06:22:10;;;;;;;;;34.00;29.25;;;;;10.07;43.73;102999.03;4995906;28;45503;-71
2022/03/19 06:24:35;;;;;;;;;38.75;33.50;;;;;10.08;43.55;102993.72;4989903;28;48218;-71
2022/03/19 06:27:00;;;;;;;;;38.25;32.25;;;;;10.08;43.52;103000.84;4983486;28;45392;-70
2022/03/19 06:29:26;;;;;;;;;30.75;29.50;;;;;10.06;43.77;103008.84;4980790;28;45335;-70
2022/03/19 06:31:51;;;;;;;;;38.75;31.00;;;;;10.02;43.74;103007.00;4980896;28;45617;-70
2022/03/19 06:34:17;;;;;;;;;42.00;35.00;;;;;9.88;44.08;103006.94;5000456;28;46000;-71
2022/03/19 06:39:26;;;;;;;;;26.75;24.00;;;;;9.85;44.42;103006.91;5000133;28;45303;-71
2022/03/19 06:41:51;;;;;;;;;38.00;30.25;;;;;9.84;44.36;102997.13;5000086;28;45365;-71
2022/03/19 06:44:17;;;;;;;;;37.00;33.00;;;;;9.81;44.26;103002.44;4992722;28;46143;-71
2022/03/19 06:46:42;;;;;;;;;33.00;29.00;;;;;9.86;44.24;103002.50;4991945;28;45368;-71
2022/03/19 06:49:07;;;;;;;;;36.50;31.75;;;;;9.81;44.15;102995.31;4985716;28;45980;-71
2022/03/19 06:51:33;;;;;;;;;33.50;30.75;;;;;9.84;44.42;103005.16;4990486;28;45514;-70
2022/03/19 06:53:58;;;;;;;;;36.50;31.25;;;;;9.78;44.54;102986.41;4995455;28;45340;-71
2022/03/19 06:56:24;;;;;;;;;36.25;33.25;;;;;9.77;44.59;102996.22;4992490;28;45702;-71
2022/03/19 06:58:49;;;;;;;;;40.50;29.75;;;;;9.88;44.85;103009.59;4990800;28;45766;-71
2022/03/19 07:01:15;;;;;;;;;35.50;33.75;;;;;9.87;44.91;102990.91;4994514;28;45719;-71
2022/03/19 07:03:45;;;;;;;;;49.00;36.50;;;;;9.90;44.97;102999.81;4997577;28;45823;-71
2022/03/19 07:06:11;;;;;;;;;42.00;36.75;;;;;9.91;44.69;102998.06;4985807;28;45815;-71
2022/03/19 07:08:37;;;;;;;;;47.50;36.75;;;;;9.89;45.29;102986.47;5000026;28;45316;-71
2022/03/19 07:11:02;;;;;;;;;45.00;34.00;;;;;9.99;45.01;103002.56;4983868;28;45482;-71
2022/03/19 07:13:27;;;;;;;;;50.00;38.75;;;;;10.01;45.23;103000.78;4989571;28;46045;-71
2022/03/19 07:15:53;;;;;;;;;51.75;36.00;;;;;9.95;44.83;103005.19;4983571;28;45296;-71
2022/03/19 07:18:18;;;;;;;;;48.50;39.25;;;;;9.90;45.30;102990.94;4980085;28;45261;-71
2022/03/19 07:20:43;;;;;;;;;38.25;35.75;;;;;9.80;45.78;102973.97;4991429;28;45710;-72
2022/03/19 07:23:09;;;;;;;;;47.75;39.50;;;;;9.95;45.51;103006.06;4976194;28;46069;-72
2022/03/19 07:25:37;;;;;;;;;46.75;39.00;;;;;9.87;45.48;102993.59;4992792;28;45743;-71
2022/03/19 07:28:09;;;;;;;;;47.25;39.00;;;;;9.82;46.19;102990.88;4982339;28;45655;-71
2022/03/19 07:30:35;;;;;;;;;50.25;40.00;;;;;9.87;46.01;102999.78;4987216;28;45498;-70
2022/03/19 07:33:00;;;;;;;;;52.50;43.25;;;;;9.87;46.27;102999.78;4981922;28;46121;-74
2022/03/19 07:35:26;;;;;;;;;52.00;43.25;;;;;9.85;46.15;103000.69;4980234;28;46888;-73
2022/03/19 07:37:53;;;;;;;;;50.75;41.25;;;;;9.77;46.56;102984.63;4977321;28;45429;-73
2022/03/19 07:41:45;;;;;;;;;54.75;41.25;;;;;9.75;46.41;102986.38;4981610;28;46855;-74
2022/03/19 07:43:07;;;;;;;;;57.00;45.25;;;;;9.85;46.22;103003.34;4984362;28;46248;-74
2022/03/19 07:45:36;;;;;;;;;52.75;41.75;;;;;9.80;46.82;102990.88;4982912;28;45432;-72
2022/03/19 07:48:03;;;;;;;;;54.50;42.25;;;;;9.72;47.19;102973.94;4983916;28;45700;-73
2022/03/19 07:50:29;;;;;;;;;55.75;45.25;;;;;9.87;46.66;102999.78;4982251;28;45534;-73
2022/03/19 07:52:55;;;;;;;;;57.75;47.75;;;;;9.86;47.02;102984.69;4982616;28;46147;-72
2022/03/19 07:55:20;;;;;;;;;48.75;39.00;;;;;9.82;47.51;102994.47;4978174;28;45462;-73
2022/03/19 07:57:46;;;;;;;;;53.75;44.00;;;;;9.89;47.07;102998.06;4978292;28;45464;-73
2022/03/19 08:00:12;;;;;;;;;59.00;46.50;;;;;9.90;47.05;102985.59;4980567;28;45694;-73
2022/03/19 08:02:42;;;;;;;;;60.50;49.25;;;;;9.97;47.04;102991.00;4977977;28;46292;-72
2022/03/19 08:05:09;;;;;;;;;58.50;45.25;;;;;9.96;47.35;102981.19;4985173;28;45533;-73
2022/03/19 08:07:34;;;;;;;;;60.00;45.50;;;;;10.02;47.54;102996.34;4977261;28;45542;-72
2022/03/19 08:10:00;;;;;;;;;52.50;43.25;;;;;10.06;47.53;102991.94;4979676;28;45636;-72
2022/03/19 08:12:27;;;;;;;;;61.50;46.75;;;;;10.07;47.63;102991.03;4983476;28;46026;-72
2022/03/19 08:14:52;;;;;;;;;58.75;48.25;;;;;10.08;47.95;103003.50;4993917;28;46007;-71
2022/03/19 08:17:18;;;;;;;;;62.25;48.50;;;;;10.04;47.55;102988.34;4982286;28;47087;-72
2022/03/19 08:19:45;;;;;;;;;60.75;47.25;;;;;10.07;48.06;102989.25;4983216;28;45611;-72
2022/03/19 08:22:10;;;;;;;;;56.75;48.25;;;;;10.13;47.30;102999.09;4988116;28;47847;-74
2022/03/19 08:24:36;;;;;;;;;53.75;43.00;;;;;10.11;48.11;102993.75;4987248;28;45522;-72
2022/03/19 08:27:02;;;;;;;;;36.75;30.25;;;;;10.12;47.90;102983.94;4981711;28;46906;-72
2022/03/19 08:29:27;;;;;;;;;61.00;47.50;;;;;10.12;47.93;102989.28;4978775;28;46075;-72
2022/03/19 08:31:54;;;;;;;;;56.75;44.00;;;;;10.15;48.04;102975.97;4982761;28;46742;-72
2022/03/19 08:34:21;;;;;;;;;60.25;48.00;;;;;10.22;47.81;102980.44;4984388;28;45570;-72
2022/03/19 08:36:47;;;;;;;;;53.75;45.00;;;;;10.27;47.82;102970.66;4985035;28;45493;-73
2022/03/19 08:41:58;;;;;;;;;59.00;47.50;;;;;10.32;48.17;102958.28;4981994;28;45692;-68
2022/03/19 08:44:23;;;;;;;;;63.75;50.50;;;;;10.40;48.04;102971.66;4994381;28;45588;-69
2022/03/19 08:46:49;;;;;;;;;46.00;37.50;;;;;10.31;48.35;102948.47;4990473;28;45383;-68
2022/03/19 08:49:14;;;;;;;;;57.75;49.00;;;;;10.49;48.07;102968.13;4989425;28;45633;-69
2022/03/19 08:51:40;;;;;;;;;62.50;50.25;;;;;10.55;48.20;102960.13;4981644;28;45424;-69
2022/03/19 08:54:07;;;;;;;;;57.50;47.75;;;;;10.61;47.99;102959.25;4983507;28;45504;-69
2022/03/19 08:56:34;;;;;;;;;60.00;49.75;;;;;10.71;48.32;102953.97;4994711;28;45452;-69
2022/03/19 08:59:00;;;;;;;;;53.75;44.25;;;;;10.85;47.82;102972.69;4995955;28;45457;-68
2022/03/19 09:01:25;;;;;;;;;64.00;52.00;;;;;10.94;47.51;102962.03;4983969;28;48292;-69
2022/03/19 09:03:51;;;;;;;;;48.75;38.50;;;;;10.93;47.99;102954.88;4987413;28;45390;-68
2022/03/19 09:06:17;;;;;;;;;62.75;49.75;;;;;11.01;47.75;102960.25;4996959;28;45727;-71
2022/03/19 09:08:44;;;;;;;;;63.25;48.50;;;;;11.14;47.58;102958.47;4993850;28;45359;-71
2022/03/19 09:11:09;;;;;;;;;62.50;48.50;;;;;11.18;47.12;102954.03;4981598;28;47385;-71
2022/03/19 09:13:36;;;;;;;;;66.50;53.25;;;;;11.32;47.11;102970.94;4992510;28;45156;-71
2022/03/19 09:16:03;;;;;;;;;59.25;49.00;;;;;11.34;46.63;102958.47;4984268;28;45357;-71
2022/03/19 09:18:28;;;;;;;;;61.00;49.25;;;;;11.40;46.83;102954.91;4993198;28;45612;-70
2022/03/19 09:20:55;;;;;;;;;58.00;48.00;;;;;11.44;46.42;102956.69;4995247;28;47482;-70
2022/03/19 09:23:20;;;;;;;;;45.75;40.00;;;;;11.54;45.97;102961.13;4986180;28;45518;-70
2022/03/19 09:25:45;;;;;;;;;58.50;48.00;;;;;11.63;46.54;102947.75;5000067;28;45547;-70
2022/03/19 09:28:11;;;;;;;;;51.00;39.00;;;;;11.71;46.41;102937.06;4986580;28;45474;-70
2022/03/19 09:30:36;;;;;;;;;60.25;47.75;;;;;11.79;46.56;102934.34;4991153;28;45476;-71
2022/03/19 09:33:01;;;;;;;;;63.00;49.00;;;;;11.89;46.17;102944.13;4982133;28;45842;-71
2022/03/19 09:35:27;;;;;;;;;58.00;46.50;;;;;11.94;46.23;102945.03;4985664;28;45353;-71
2022/03/19 09:37:52;;;;;;;;;62.00;50.00;;;;;12.01;45.27;102937.88;4981831;28;45623;-70
2022/03/19 09:40:19;;;;;;;;;57.50;47.25;;;;;12.05;46.00;102942.34;4990986;28;46091;-70
2022/03/19 09:42:53;;;;;;;;;59.75;48.75;;;;;12.12;45.37;102941.41;4981899;28;46202;-70
2022/03/19 09:45:19;;;;;;;;;62.00;48.00;;;;;12.16;45.39;102929.81;4986136;28;46358;-70
2022/03/19 09:47:45;;;;;;;;;58.25;47.50;;;;;12.17;45.19;102920.88;4993564;28;45399;-70
2022/03/19 09:50:11;;;;;;;;;64.00;49.00;;;;;12.29;45.25;102933.31;4990620;28;45581;-70
2022/03/19 09:52:37;;;;;;;;;56.75;45.75;;;;;12.29;45.04;102929.75;4980422;28;45447;-70
2022/03/19 09:55:03;;;;;;;;;58.25;45.50;;;;;12.37;45.12;102942.19;4979692;28;45420;-71
2022/03/19 09:57:29;;;;;;;;;63.75;51.00;;;;;12.43;44.49;102933.25;4985501;28;45471;-70
2022/03/19 09:59:54;;;;;;;;;60.25;47.50;;;;;12.47;44.81;102931.44;4992713;28;47135;-70
2022/03/19 10:02:20;;;;;;;;;60.50;49.50;;;;;12.52;44.50;102926.97;4989127;28;45478;-70
2022/03/19 10:04:45;;;;;;;;;61.50;47.00;;;;;12.56;44.15;102921.56;4987318;28;45558;-70
2022/03/19 10:09:56;;;;;;;;;57.75;46.50;;;;;12.65;43.96;102923.31;4993815;28;45626;-70
2022/03/19 10:12:31;;;;;;;;;62.00;47.50;;;;;12.68;43.82;102919.69;4995006;28;46068;-70
2022/03/19 10:14:57;;;;;;;;;58.50;47.25;;;;;12.67;43.78;102910.78;4977974;28;45770;-70
2022/03/19 10:17:34;;;;;;;;;60.00;47.50;;;;;12.73;43.64;102915.19;4981776;28;45515;-70
2022/03/19 10:20:06;;;;;;;;;60.00;47.75;;;;;12.76;43.55;102924.13;4988276;28;45498;-70
2022/03/19 10:22:32;;;;;;;;;56.50;43.25;;;;;12.81;43.50;102909.78;4989986;28;45354;-67
2022/03/19 10:24:59;;;;;;;;;58.25;47.75;;;;;12.88;43.33;102920.47;4988746;28;45248;-67
2022/03/19 10:27:25;;;;;;;;;50.75;43.00;;;;;12.91;43.32;102909.72;4995327;28;45401;-70
2022/03/19 10:30:03;;;;;;;;;55.75;44.25;;;;;12.90;43.05;102897.22;4995958;28;47124;-71
2022/03/19 10:32:28;;;;;;;;;53.50;44.50;;;;;12.90;42.56;102882.94;4995030;28;46137;-70
2022/03/19 10:34:54;;;;;;;;;59.75;45.50;;;;;13.02;43.02;102895.34;4984880;28;45351;-72
2022/03/19 10:37:39;;;;;;;;;57.75;46.00;;;;;13.07;43.38;102880.13;4989402;28;45304;-72
2022/03/19 10:40:08;;;;;;;;;58.75;47.00;;;;;13.14;42.71;102869.31;4997041;28;48186;-72
2022/03/19 10:42:39;;;;;;;;;17.50;11.75;;;;;13.27;42.83;102887.97;4997806;28;45282;-68
2022/03/19 10:45:18;;;;;;;;;57.50;46.25;;;;;13.36;42.44;102892.38;4998498;28;45484;-73
2022/03/19 10:47:48;;;;;;;;;64.75;48.25;;;;;13.41;42.54;102886.06;4980112;28;45234;-71
2022/03/19 10:50:22;;;;;;;;;57.75;44.50;;;;;13.42;42.46;102885.19;4991536;28;47551;-70
2022/03/19 10:52:49;;;;;;;;;59.75;47.25;;;;;13.53;41.81;102893.09;4990561;28;45473;-72
2022/03/19 10:55:15;;;;;;;;;59.25;48.75;;;;;13.47;41.54;102883.31;4992948;28;45591;-67
2022/03/19 10:57:41;;;;;;;;;53.50;45.00;;;;;13.49;41.38;102881.50;4980097;28;45414;-76
2022/03/19 11:00:08;;;;;;;;;54.25;45.25;;;;;13.51;41.03;102878.81;4984308;28;47438;-75
2022/03/19 11:02:38;;;;;;;;;54.75;45.75;;;;;13.52;41.41;102875.25;4999970;28;45328;-70
2022/03/19 11:05:06;;;;;;;;;56.00;45.00;;;;;13.53;41.38;102855.53;4987223;28;45323;-71
2022/03/19 11:07:33;;;;;;;;;54.50;44.75;;;;;13.71;40.76;102879.50;4987238;28;45391;-73
2022/03/19 11:10:01;;;;;;;;;53.50;44.00;;;;;13.81;40.84;102868.66;4977932;28;45573;-75
2022/03/19 11:12:30;;;;;;;;;55.00;43.25;;;;;13.88;40.89;102865.88;4986093;28;45687;-71
2022/03/19 11:14:59;;;;;;;;;55.25;45.75;;;;;13.99;40.35;102878.28;4997643;28;45384;-71
2022/03/19 11:17:32;;;;;;;;;56.50;45.75;;;;;13.99;39.71;102876.47;4989904;28;45361;-75
2022/03/19 11:20:00;;;;;;;;;66.00;49.75;;;;;13.90;40.16;102839.03;4978722;28;47145;-75
2022/03/19 11:22:29;;;;;;;;;50.75;43.00;;;;;13.90;39.92;102844.38;4979666;28;45481;-76
2022/03/19 11:25:16;;;;;;;;;53.75;42.50;;;;;13.83;39.60;102818.50;4980799;28;45630;-82
2022/03/19 11:27:46;;;;;;;;;53.00;42.50;;;;;14.08;39.76;102846.81;4993130;28;45549;-80
2022/03/19 11:30:28;;;;;;;;;55.50;42.00;;;;;14.14;39.75;102839.59;4997260;28;45545;-80
2022/03/19 11:33:05;;;;;;;;;51.25;41.75;;;;;14.23;39.45;102847.50;4989467;28;47535;-81
2022/03/19 11:35:33;;;;;;;;;52.50;42.75;;;;;14.21;39.75;102830.53;4987851;28;45425;-75
2022/03/19 11:38:02;;;;;;;;;57.75;46.75;;;;;14.34;39.63;102842.88;4985343;28;45853;-79
2022/03/19 11:40:33;;;;;;;;;59.50;48.00;;;;;14.27;39.48;102812.53;4989158;28;47333;-79
2022/03/19 11:43:04;;;;;;;;;55.75;45.25;;;;;14.37;38.64;102837.47;4989792;28;45840;-76
2022/03/19 11:45:51;;;;;;;;;56.75;44.25;;;;;14.17;39.25;102802.84;4988779;28;45478;-76
2022/03/19 11:48:34;;;;;;;;;58.25;46.00;;;;;14.42;39.23;102822.16;4991230;28;45438;-81
2022/03/19 11:51:25;;;;;;;;;55.00;42.50;;;;;14.45;38.67;102810.50;4986993;28;45830;-75
2022/03/19 11:53:54;;;;;;;;;59.50;47.50;;;;;14.50;38.37;102819.38;4988415;28;45879;-81
2022/03/19 11:56:26;;;;;;;;;55.00;44.50;;;;;14.54;38.31;102806.75;4992559;28;46997;-78
2022/03/19 11:58:52;;;;;;;;;53.00;43.25;;;;;14.39;38.18;102765.78;4996887;28;45438;-81
2022/03/19 12:01:18;;;;;;;;;55.25;43.75;;;;;14.48;38.06;102774.59;4990231;28;45846;-77
2022/03/19 12:04:05;;;;;;;;;54.50;42.50;;;;;14.78;37.40;102801.00;4990629;28;45495;-77
2022/03/19 12:06:33;;;;;;;;;52.25;41.50;;;;;14.63;37.10;102766.31;4993429;28;45456;-77
2022/03/19 12:08:59;;;;;;;;;53.75;42.00;;;;;14.71;36.85;102771.56;4993390;28;45532;-77
2022/03/19 12:11:25;;;;;;;;;50.25;42.00;;;;;14.74;36.77;102766.13;4991045;28;45907;-78
2022/03/19 12:13:50;;;;;;;;;56.75;43.25;;;;;14.71;37.33;102742.88;4987843;28;45515;-77
2022/03/19 12:16:42;;;;;;;;;52.25;41.75;;;;;15.06;36.92;102795.13;4990725;28;45517;-74
2022/03/19 12:19:08;;;;;;;;;54.00;42.75;;;;;14.92;36.77;102762.25;4988040;28;45831;-78
2022/03/19 12:21:39;;;;;;;;;53.00;42.50;;;;;14.74;36.98;102728.50;4995675;28;45552;-79
2022/03/19 12:24:08;;;;;;;;;52.00;42.25;;;;;15.09;36.91;102772.69;4994014;28;45450;-77
2022/03/19 12:26:49;;;;;;;;;54.75;42.75;;;;;15.13;36.54;102767.19;4995958;28;45807;-78
2022/03/19 12:29:16;;;;;;;;;51.25;41.25;;;;;15.15;36.36;102761.78;4991371;28;45943;-77
2022/03/19 12:31:45;;;;;;;;;48.75;39.25;;;;;15.16;36.37;102753.69;4984187;28;48097;-77
2022/03/19 12:34:15;;;;;;;;;55.25;44.75;;;;;15.00;36.21;102728.91;4983567;28;45527;-77
2022/03/19 12:36:42;;;;;;;;;54.75;44.75;;;;;15.22;35.87;102759.84;4982630;28;45505;-78
2022/03/19 12:39:07;;;;;;;;;51.25;42.75;;;;;15.01;36.23;102713.66;4985900;28;45851;-76
2022/03/19 12:41:33;;;;;;;;;50.50;43.00;;;;;15.03;35.99;102703.72;4987244;28;45957;-78
2022/03/19 12:44:05;;;;;;;;;54.00;43.50;;;;;15.00;35.68;102684.97;4991166;28;46284;-87
2022/03/19 12:46:33;;;;;;;;;58.25;46.00;;;;;15.37;35.92;102735.34;4990153;28;45434;-79
2022/03/19 12:49:12;;;;;;;;;50.75;41.25;;;;;15.43;35.87;102735.22;4989432;28;45515;-82
2022/03/19 12:51:45;;;;;;;;;54.75;44.25;;;;;15.17;35.97;102668.50;4987221;28;45570;-81
2022/03/19 12:54:31;;;;;;;;;54.25;43.75;;;;;15.34;35.58;102674.41;4986996;28;45283;-82
2022/03/19 12:57:14;;;;;;;;;53.75;44.50;;;;;15.32;35.09;102664.59;4996102;28;45466;-82
2022/03/19 12:59:48;;;;;;;;;56.75;45.25;;;;;15.60;35.07;102693.59;4980581;28;46983;-81
2022/03/19 13:02:14;;;;;;;;;50.75;40.50;;;;;15.35;35.01;102664.50;4994427;28;46199;-82
2022/03/19 13:04:43;;;;;;;;;52.00;43.50;;;;;15.50;35.14;102685.72;4993804;28;45356;-81
2022/03/19 13:07:13;;;;;;;;;50.50;41.25;;;;;15.60;34.93;102701.66;4996759;28;45527;-81
2022/03/19 13:09:39;;;;;;;;;52.00;41.00;;;;;15.50;35.01;102664.19;5000049;28;45470;-81
2022/03/19 13:12:14;;;;;;;;;50.50;42.00;;;;;15.36;34.88;102621.44;5012757;28;45646;-81
2022/03/19 13:14:47;;;;;;;;;48.50;40.00;;;;;15.48;34.58;102633.72;4987055;28;45383;-81
2022/03/19 13:17:15;;;;;;;;;52.25;44.25;;;;;15.60;34.63;102654.09;4997870;28;45752;-82
2022/03/19 13:19:40;;;;;;;;;54.00;44.25;;;;;15.75;34.33;102658.22;4987570;28;45513;-81
2022/03/19 13:22:08;;;;;;;;;51.50;43.50;;;;;15.54;34.48;102643.47;4992947;28;46441;-81
2022/03/19 13:24:36;;;;;;;;;49.25;41.00;;;;;15.77;34.18;102644.75;4983563;28;45819;-85
2022/03/19 13:27:03;;;;;;;;;49.75;41.00;;;;;15.45;34.15;102587.16;4995406;28;45404;-83
2022/03/19 13:29:32;;;;;;;;;50.50;41.00;;;;;15.52;34.14;102589.69;4991930;28;45688;-83
2022/03/19 13:32:00;;;;;;;;;53.25;43.25;;;;;15.71;34.32;102603.56;4993639;28;45974;-80
2022/03/19 13:34:30;;;;;;;;;53.00;43.00;;;;;15.92;34.38;102628.22;4983448;28;45617;-79
2022/03/19 13:37:08;;;;;;;;;53.75;43.50;;;;;15.77;34.77;102588.22;4995556;28;45448;-80
2022/03/19 13:39:41;;;;;;;;;52.75;42.25;;;;;15.71;34.20;102565.00;4986764;28;45273;-79
2022/03/19 13:42:19;;;;;;;;;57.50;44.75;;;;;16.07;34.72;102608.09;4992404;28;45704;-79
2022/03/19 13:44:47;;;;;;;;;52.00;42.25;;;;;15.98;34.54;102597.59;4979858;28;45792;-79
2022/03/19 13:47:19;;;;;;;;;52.00;43.25;;;;;16.16;34.31;102605.19;4985135;28;45451;-79
2022/03/19 13:49:55;;;;;;;;;52.00;41.50;;;;;15.82;34.28;102538.72;4991646;28;45387;-79
2022/03/19 13:52:40;;;;;;;;;50.25;41.25;;;;;15.88;34.23;102535.84;4985755;28;46461;-80
2022/03/19 13:55:14;;;;;;;;;55.75;45.00;;;;;15.99;34.79;102546.38;4999076;28;45262;-79
2022/03/19 13:57:41;;;;;;;;;48.00;40.50;;;;;16.32;34.70;102584.09;4990580;28;45170;-79
2022/03/19 14:00:08;;;;;;;;;55.75;44.50;;;;;16.37;34.79;102579.47;4994100;28;45265;-79
2022/03/19 14:02:33;;;;;;;;;52.25;43.00;;;;;16.14;34.64;102537.00;4989640;28;47326;-78
2022/03/19 14:05:01;;;;;;;;;53.50;44.50;;;;;16.17;34.56;102539.63;4994048;28;46244;-78
2022/03/19 14:07:35;;;;;;;;;54.50;45.00;;;;;16.19;34.72;102537.75;4991385;28;45434;-78
2022/03/19 14:10:04;;;;;;;;;54.00;44.25;;;;;16.09;34.96;102512.00;4999095;28;45430;-78
2022/03/19 14:12:38;;;;;;;;;57.75;45.50;;;;;16.44;34.16;102566.72;4998692;28;47529;-79
2022/03/19 14:15:05;;;;;;;;;53.50;43.50;;;;;16.18;34.18;102518.94;4994763;28;45320;-79
2022/03/19 14:17:54;;;;;;;;;55.25;44.00;;;;;16.30;34.35;102518.56;4984914;28;45321;-78
2022/03/19 14:20:21;;;;;;;;;51.00;43.00;;;;;16.33;34.53;102529.28;4989671;28;45511;-78
2022/03/19 14:22:48;;;;;;;;;54.50;43.50;;;;;16.33;34.58;102510.41;4993063;28;46554;-78
2022/03/19 14:25:14;;;;;;;;;53.50;42.75;;;;;16.33;34.63;102509.53;4991798;28;45629;-78
2022/03/19 14:27:41;;;;;;;;;57.25;45.75;;;;;16.33;33.94;102510.41;4999290;28;45328;-78
2022/03/19 14:30:08;;;;;;;;;54.25;43.75;;;;;16.33;34.78;102504.16;4991775;28;45352;-78
2022/03/19 14:32:33;;;;;;;;;52.00;42.50;;;;;16.34;34.48;102504.09;4986719;28;45436;-78
2022/03/19 14:34:58;;;;;;;;;42.50;37.25;;;;;16.18;34.48;102484.78;4989017;28;45534;-81
2022/03/19 14:37:24;;;;;;;;;51.00;39.50;;;;;16.40;34.29;102511.13;4995318;28;45379;-76
2022/03/19 14:39:49;;;;;;;;;57.00;44.00;;;;;16.52;34.69;102520.66;4988656;28;45514;-76
2022/03/19 14:42:15;;;;;;;;;53.50;44.00;;;;;16.59;34.72;102531.25;4991617;28;45438;-75
2022/03/19 14:44:41;;;;;;;;;53.00;43.25;;;;;16.42;34.51;102496.69;4985948;28;45569;-82
2022/03/19 14:47:06;;;;;;;;;53.50;43.75;;;;;16.33;34.73;102487.97;4982549;28;45399;-75
2022/03/19 14:49:31;;;;;;;;;55.50;44.75;;;;;16.42;34.73;102485.00;4978870;28;45542;-76
2022/03/19 14:51:57;;;;;;;;;54.75;43.25;;;;;16.43;34.28;102484.09;4987576;28;45358;-79
2022/03/19 14:54:24;;;;;;;;;49.75;42.00;;;;;16.61;34.15;102510.50;4990965;28;45398;-71
2022/03/19 14:56:50;;;;;;;;;46.75;39.50;;;;;16.63;34.25;102511.31;4992104;28;45421;-73
2022/03/19 14:59:15;;;;;;;;;53.25;42.75;;;;;16.60;34.26;102489.84;4993714;28;45641;-72
2022/03/19 15:01:41;;;;;;;;;46.25;39.25;;;;;16.58;33.80;102483.63;4992893;28;46183;-73
2022/03/19 15:04:08;;;;;;;;;50.00;40.00;;;;;16.60;34.28;102483.59;4996760;28;45925;-74
2022/03/19 15:06:33;;;;;;;;;48.00;40.75;;;;;16.76;34.13;102505.59;4988156;28;45457;-73
2022/03/19 15:08:58;;;;;;;;;51.75;41.00;;;;;16.67;34.32;102491.44;4983989;28;45489;-73
2022/03/19 15:11:27;;;;;;;;;50.00;40.50;;;;;16.71;34.56;102477.88;4998169;28;47152;-73
2022/03/19 15:13:53;;;;;;;;;51.75;41.00;;;;;16.81;33.88;102492.84;4994438;28;45849;-73
2022/03/19 15:16:19;;;;;;;;;57.00;43.75;;;;;16.71;33.73;102469.78;4984229;28;45462;-73
2022/03/19 15:18:44;;;;;;;;;49.75;41.25;;;;;16.71;33.66;102480.56;5001930;28;45450;-74
2022/03/19 15:21:13;;;;;;;;;48.50;39.50;;;;;16.67;33.66;102459.09;4997641;28;47117;-73
2022/03/19 15:23:38;;;;;;;;;46.25;38.75;;;;;16.76;33.61;102463.31;4978559;28;45468;-73
2022/03/19 15:26:03;;;;;;;;;51.25;41.25;;;;;16.60;33.35;102446.72;4981964;28;45416;-73
2022/03/19 15:28:29;;;;;;;;;50.00;41.00;;;;;16.68;33.39;102444.66;5001673;28;45513;-72
2022/03/19 15:30:55;;;;;;;;;50.50;41.00;;;;;16.72;33.55;102456.22;4990576;28;46350;-73
2022/03/19 15:33:21;;;;;;;;;49.25;41.00;;;;;16.75;33.55;102447.19;4996246;28;45337;-73
2022/03/19 15:35:47;;;;;;;;;45.25;38.75;;;;;16.88;33.52;102463.91;4990776;28;45456;-74
2022/03/19 15:38:13;;;;;;;;;49.00;39.75;;;;;16.78;33.40;102436.31;4982860;28;45595;-73
2022/03/19 15:40:39;;;;;;;;;51.00;42.00;;;;;16.88;33.46;102454.00;5001350;28;47362;-73
2022/03/19 15:43:07;;;;;;;;;49.75;38.75;;;;;16.78;33.25;102433.59;4993403;28;45555;-74
2022/03/19 15:45:34;;;;;;;;;43.75;37.00;;;;;16.82;32.99;102427.16;4989066;28;45487;-74
2022/03/19 15:47:59;;;;;;;;;47.50;39.25;;;;;16.72;32.49;102413.09;4993571;28;45311;-74
2022/03/19 15:50:24;;;;;;;;;40.75;35.00;;;;;16.80;32.78;102421.81;4987946;28;47618;-74
2022/03/19 15:52:52;;;;;;;;;43.50;37.00;;;;;16.83;32.80;102421.72;4993481;28;45378;-74
2022/03/19 15:55:17;;;;;;;;;45.00;36.75;;;;;16.93;32.80;102429.56;4986271;28;45479;-74
2022/03/19 15:57:43;;;;;;;;;40.25;34.75;;;;;16.85;32.64;102411.81;4991713;28;45323;-74
2022/03/19 16:00:09;;;;;;;;;44.75;36.75;;;;;16.96;32.60;102418.69;4999059;28;45371;-74
2022/03/19 16:02:35;;;;;;;;;44.00;36.75;;;;;16.98;32.21;102423.09;4991288;28;45292;-74
2022/03/19 16:05:00;;;;;;;;;45.75;37.00;;;;;16.92;32.59;102417.00;4999804;28;46085;-74
2022/03/19 16:07:25;;;;;;;;;44.75;37.75;;;;;16.92;32.81;102409.78;4992241;28;45271;-74
2022/03/19 16:09:53;;;;;;;;;48.75;39.00;;;;;16.95;32.68;102409.69;4985812;28;45328;-74
2022/03/19 16:12:21;;;;;;;;;45.00;36.00;;;;;16.97;31.91;102407.84;4986480;28;45692;-74
2022/03/19 16:14:51;;;;;;;;;35.25;30.50;;;;;17.00;31.94;102407.72;4997875;28;45344;-74
2022/03/19 16:17:17;;;;;;;;;39.50;33.75;;;;;17.01;32.07;102406.81;4990395;28;46805;-74
2022/03/19 16:19:43;;;;;;;;;37.25;33.50;;;;;17.00;31.74;102402.31;4989151;28;45971;-74
2022/03/19 16:22:08;;;;;;;;;43.50;36.00;;;;;16.94;31.64;102390.84;4995071;28;45339;-74
2022/03/19 16:24:33;;;;;;;;;37.50;30.50;;;;;16.92;31.83;102388.22;4987642;28;45730;-74
2022/03/19 16:26:59;;;;;;;;;43.75;36.25;;;;;16.96;31.80;102395.28;4986549;28;45474;-74
2022/03/19 16:29:24;;;;;;;;;47.00;39.00;;;;;16.94;32.19;102396.25;4983118;28;46075;-73
2022/03/19 16:31:49;;;;;;;;;49.25;40.00;;;;;16.91;32.59;102405.34;4983128;28;45287;-74
2022/03/19 16:34:15;;;;;;;;;45.00;38.00;;;;;16.76;32.73;102376.16;5000723;28;45450;-74
2022/03/19 16:36:52;;;;;;;;;44.75;37.25;;;;;16.74;32.72;102373.50;4998633;28;45452;-73
2022/03/19 16:39:18;;;;;;;;;47.75;39.00;;;;;16.86;33.35;102396.53;4983698;28;46128;-75
2022/03/19 16:41:43;;;;;;;;;46.25;38.50;;;;;16.75;33.19;102377.94;4996305;28;45398;-75
2022/03/19 16:44:09;;;;;;;;;48.25;40.25;;;;;16.80;33.08;102396.69;4989001;28;45388;-75
2022/03/19 16:46:34;;;;;;;;;49.75;38.50;;;;;16.53;33.01;102353.50;4999727;28;45383;-75
2022/03/19 16:48:59;;;;;;;;;47.50;39.00;;;;;16.65;33.38;102376.47;4989681;28;45249;-74
2022/03/19 16:51:25;;;;;;;;;47.50;37.75;;;;;16.76;33.56;102395.03;4987465;28;45375;-73
2022/03/19 16:53:50;;;;;;;;;47.25;38.00;;;;;16.70;33.34;102401.47;4986723;28;46064;-75
2022/03/19 16:56:16;;;;;;;;;45.00;38.25;;;;;16.71;33.45;102400.56;4997338;28;45351;-75
2022/03/19 16:58:41;;;;;;;;;40.75;33.75;;;;;16.68;33.68;102392.56;4991813;28;45387;-71
2022/03/19 17:01:07;;;;;;;;;43.75;36.00;;;;;16.70;33.74;102397.91;4982189;28;45322;-71
2022/03/19 17:03:32;;;;;;;;;41.25;34.25;;;;;16.64;33.45;102393.59;4982505;28;45605;-71
2022/03/19 17:05:58;;;;;;;;;45.00;37.75;;;;;16.61;33.62;102385.59;4993378;28;45577;-71
2022/03/19 17:08:23;;;;;;;;;45.00;35.00;;;;;16.65;33.89;102390.81;4994060;28;47931;-73
2022/03/19 17:10:48;;;;;;;;;45.75;36.25;;;;;16.66;33.85;102395.31;5000354;28;45407;-73
2022/03/19 17:13:15;;;;;;;;;35.00;31.25;;;;;16.64;33.62;102383.69;4998723;28;45383;-73